createdAt,value
2022-12-18T00:02:13.959Z,-1.39
2022-12-18T00:04:40.488Z,-1.39
2022-12-18T00:07:07.027Z,-1.46
2022-12-18T00:09:39.785Z,-1.49
2022-12-18T00:14:42.885Z,-1.48
2022-12-18T00:17:09.360Z,-1.43
2022-12-18T00:19:35.999Z,-1.39
2022-12-18T00:22:02.424Z,-1.35
2022-12-18T00:24:28.851Z,-1.39
2022-12-18T00:26:55.271Z,-1.42
2022-12-18T00:29:21.716Z,-1.44
2022-12-18T00:31:48.228Z,-1.50
2022-12-18T00:34:15.098Z,-1.60
2022-12-18T00:36:42.418Z,-1.55
2022-12-18T00:39:11.327Z,-1.57
2022-12-18T00:41:56.309Z,-1.57
2022-12-18T00:44:22.804Z,-1.66
2022-12-18T00:46:49.329Z,-1.64
2022-12-18T00:49:18.716Z,-1.61
2022-12-18T00:51:46.215Z,-1.61
2022-12-18T00:54:12.721Z,-1.74
2022-12-18T00:56:48.251Z,-1.70
2022-12-18T00:59:15.991Z,-1.76
2022-12-18T01:01:42.605Z,-1.74
2022-12-18T01:04:09.289Z,-1.68
2022-12-18T01:06:36.154Z,-1.77
2022-12-18T01:09:03.163Z,-1.88
2022-12-18T01:11:29.707Z,-1.95
2022-12-18T01:13:56.376Z,-1.99
2022-12-18T01:16:23.735Z,-2.09
2022-12-18T01:18:53.633Z,-2.03
2022-12-18T01:21:20.494Z,-2.01
2022-12-18T01:23:47.552Z,-2.10
2022-12-18T01:26:16.475Z,-2.15
2022-12-18T01:28:44.748Z,-2.24
2022-12-18T01:31:15.727Z,-2.32
2022-12-18T01:33:42.337Z,-2.42
2022-12-18T01:36:09.919Z,-2.45
2022-12-18T01:38:36.351Z,-2.53
2022-12-18T01:41:03.087Z,-2.50
2022-12-18T01:44:01.771Z,-2.58
2022-12-18T01:46:28.797Z,-2.58
2022-12-18T01:48:58.790Z,-2.60
2022-12-18T01:51:27.413Z,-2.62
2022-12-18T01:53:53.884Z,-2.61
2022-12-18T01:56:22.035Z,-2.62
2022-12-18T01:58:54.573Z,-2.67
2022-12-18T02:01:24.654Z,-2.62
2022-12-18T02:03:52.329Z,-2.68
2022-12-18T02:06:33.800Z,-2.69
2022-12-18T02:09:10.810Z,-2.66
2022-12-18T02:12:11.596Z,-2.74
2022-12-18T02:14:59.728Z,-2.79
2022-12-18T02:17:40.844Z,-2.84
2022-12-18T02:20:30.781Z,-2.73
2022-12-18T02:23:20.968Z,-2.79
2022-12-18T02:26:12.464Z,-2.92
2022-12-18T02:28:54.079Z,-2.94
2022-12-18T02:31:27.447Z,-2.97
2022-12-18T02:33:57.467Z,-2.97
2022-12-18T02:36:26.488Z,-2.96
2022-12-18T02:38:54.628Z,-2.97
2022-12-18T02:41:22.729Z,-3.02
2022-12-18T02:43:50.427Z,-2.96
2022-12-18T02:46:37.936Z,-2.83
2022-12-18T02:49:25.477Z,-2.78
2022-12-18T02:52:01.913Z,-2.80
2022-12-18T02:54:46.413Z,-2.85
2022-12-18T02:57:36.129Z,-2.98
2022-12-18T03:00:11.384Z,-3.02
2022-12-18T03:03:08.914Z,-3.03
2022-12-18T03:05:41.224Z,-3.01
2022-12-18T03:08:14.058Z,-2.97
2022-12-18T03:10:46.768Z,-2.96
2022-12-18T03:13:20.064Z,-3.05
2022-12-18T03:15:54.031Z,-3.15
2022-12-18T03:18:46.832Z,-3.20
2022-12-18T03:21:17.083Z,-3.24
2022-12-18T03:23:50.816Z,-3.06
2022-12-18T03:26:25.695Z,-3.04
2022-12-18T03:29:00.690Z,-3.03
2022-12-18T03:31:31.817Z,-2.94
2022-12-18T03:34:06.591Z,-2.96
2022-12-18T03:36:33.131Z,-2.95
2022-12-18T03:38:59.768Z,-2.95
2022-12-18T03:41:54.703Z,-2.97
2022-12-18T03:44:37.697Z,-3.06
2022-12-18T03:47:21.611Z,-3.13
2022-12-18T03:50:09.585Z,-3.07
2022-12-18T03:52:41.822Z,-3.06
2022-12-18T03:55:10.124Z,-3.01
2022-12-18T03:57:37.935Z,-2.90
2022-12-18T04:00:16.361Z,-2.96
2022-12-18T04:02:48.946Z,-3.01
2022-12-18T04:05:16.744Z,-3.04
2022-12-18T04:07:44.876Z,-3.01
2022-12-18T04:10:13.245Z,-3.02
2022-12-18T04:12:39.692Z,-3.06
2022-12-18T04:15:07.399Z,-2.99
2022-12-18T04:17:33.809Z,-3.04
2022-12-18T04:20:00.260Z,-3.00
2022-12-18T04:22:26.683Z,-2.95
2022-12-18T04:24:53.136Z,-2.92
2022-12-18T04:27:19.758Z,-2.92
2022-12-18T04:29:46.196Z,-2.85
2022-12-18T04:32:12.620Z,-2.86
2022-12-18T04:34:39.104Z,-2.79
2022-12-18T04:37:05.527Z,-2.75
2022-12-18T04:39:32.038Z,-2.74
2022-12-18T04:41:58.464Z,-2.71
2022-12-18T04:44:24.931Z,-2.85
2022-12-18T04:46:51.412Z,-2.92
2022-12-18T04:49:17.897Z,-2.89
2022-12-18T04:51:44.340Z,-2.96
2022-12-18T04:54:10.758Z,-2.92
2022-12-18T04:56:37.232Z,-2.87
2022-12-18T04:59:03.643Z,-3.00
2022-12-18T05:01:34.536Z,-3.01
2022-12-18T05:04:02.616Z,-2.92
2022-12-18T05:06:29.136Z,-3.00
2022-12-18T05:08:55.928Z,-3.03
2022-12-18T05:11:22.600Z,-2.94
2022-12-18T05:13:49.111Z,-3.01
2022-12-18T05:16:15.779Z,-2.96
2022-12-18T05:18:42.978Z,-2.96
2022-12-18T05:21:09.719Z,-3.05
2022-12-18T05:23:37.011Z,-3.07
2022-12-18T05:26:06.071Z,-3.13
2022-12-18T05:28:34.833Z,-3.18
2022-12-18T05:31:03.255Z,-3.18
2022-12-18T05:33:32.721Z,-3.13
2022-12-18T05:36:04.248Z,-3.00
2022-12-18T05:38:32.313Z,-2.97
2022-12-18T05:40:59.203Z,-3.04
2022-12-18T05:43:27.222Z,-2.96
2022-12-18T05:45:55.201Z,-2.91
2022-12-18T05:48:22.312Z,-2.94
2022-12-18T05:50:51.168Z,-2.94
2022-12-18T05:53:19.187Z,-2.90
2022-12-18T05:55:46.383Z,-2.86
2022-12-18T05:58:14.359Z,-2.86
2022-12-18T06:00:45.905Z,-2.83
2022-12-18T06:03:13.548Z,-2.87
2022-12-18T06:05:42.763Z,-2.77
2022-12-18T06:08:09.754Z,-2.80
2022-12-18T06:10:36.423Z,-2.85
2022-12-18T06:13:02.920Z,-2.81
2022-12-18T06:15:29.323Z,-2.83
2022-12-18T06:17:55.776Z,-2.86
2022-12-18T06:20:22.435Z,-2.89
2022-12-18T06:22:49.187Z,-2.85
2022-12-18T06:25:16.312Z,-2.81
2022-12-18T06:27:43.023Z,-2.87
2022-12-18T06:30:10.933Z,-2.85
2022-12-18T06:32:37.424Z,-2.81
2022-12-18T06:35:04.795Z,-2.73
2022-12-18T06:37:32.505Z,-2.70
2022-12-18T06:39:58.999Z,-2.80
2022-12-18T06:42:25.810Z,-2.74
2022-12-18T06:44:52.308Z,-2.76
2022-12-18T06:47:19.391Z,-2.73
2022-12-18T06:49:45.842Z,-2.72
2022-12-18T06:52:12.282Z,-2.74
2022-12-18T06:54:38.784Z,-2.80
2022-12-18T06:57:05.236Z,-2.86
2022-12-18T06:59:31.688Z,-2.93
2022-12-18T07:01:58.310Z,-2.93
2022-12-18T07:04:32.647Z,-2.88
2022-12-18T07:06:59.062Z,-2.90
2022-12-18T07:09:25.699Z,-2.81
2022-12-18T07:11:53.283Z,-2.85
2022-12-18T07:14:19.791Z,-2.90
2022-12-18T07:16:46.350Z,-2.82
2022-12-18T07:19:12.915Z,-2.80
2022-12-18T07:21:39.569Z,-2.76
2022-12-18T07:24:06.724Z,-2.74
2022-12-18T07:26:33.205Z,-2.67
2022-12-18T07:28:59.817Z,-2.63
2022-12-18T07:31:27.434Z,-2.62
2022-12-18T07:33:54.547Z,-2.55
2022-12-18T07:36:23.833Z,-2.47
2022-12-18T07:38:51.182Z,-2.46
2022-12-18T07:41:18.121Z,-2.44
2022-12-18T07:43:44.901Z,-2.38
2022-12-18T07:46:14.678Z,-2.42
2022-12-18T07:48:42.875Z,-2.33
2022-12-18T07:51:11.171Z,-2.27
2022-12-18T07:53:38.074Z,-2.24
2022-12-18T07:58:54.394Z,-2.21
2022-12-18T08:01:21.365Z,-2.14
2022-12-18T08:03:48.108Z,-2.15
2022-12-18T08:06:14.992Z,-2.11
2022-12-18T08:08:43.170Z,-2.19
2022-12-18T08:11:10.678Z,-2.11
2022-12-18T08:13:37.388Z,-2.07
2022-12-18T08:16:07.126Z,-2.01
2022-12-18T08:18:35.229Z,-1.93
2022-12-18T08:21:16.942Z,-1.90
2022-12-18T08:23:44.180Z,-1.88
2022-12-18T08:26:12.428Z,-1.82
2022-12-18T08:28:39.660Z,-1.79
2022-12-18T08:31:06.735Z,-1.78
2022-12-18T08:33:34.526Z,-1.75
2022-12-18T08:36:01.351Z,-1.72
2022-12-18T08:38:28.255Z,-1.72
2022-12-18T08:41:02.628Z,-1.74
2022-12-18T08:43:47.775Z,-1.74
2022-12-18T08:46:14.336Z,-1.72
2022-12-18T08:48:40.877Z,-1.78
2022-12-18T08:51:07.672Z,-1.73
2022-12-18T08:53:35.819Z,-1.68
2022-12-18T08:56:02.856Z,-1.68
2022-12-18T08:58:29.434Z,-1.66
2022-12-18T09:01:01.034Z,-1.71
2022-12-18T09:03:27.595Z,-1.61
2022-12-18T09:05:54.051Z,-1.62
2022-12-18T09:08:20.625Z,-1.59
2022-12-18T09:10:49.588Z,-1.47
2022-12-18T09:13:17.120Z,-1.45
2022-12-18T09:15:46.309Z,-1.39
2022-12-18T09:18:14.121Z,-1.33
2022-12-18T09:20:40.936Z,-1.21
2022-12-18T09:23:08.411Z,-1.12
2022-12-18T09:25:36.756Z,-1.09
2022-12-18T09:28:05.496Z,-1.06
2022-12-18T09:30:34.263Z,-1.11
2022-12-18T09:33:01.884Z,-1.03
2022-12-18T09:35:28.858Z,-0.99
2022-12-18T09:37:55.435Z,-0.94
2022-12-18T09:40:26.097Z,-0.87
2022-12-18T09:43:01.610Z,-0.86
2022-12-18T09:45:31.404Z,-0.71
2022-12-18T09:47:58.575Z,-0.69
2022-12-18T09:50:33.663Z,-0.65
2022-12-18T09:53:06.872Z,-0.65
2022-12-18T09:55:41.283Z,-0.58
2022-12-18T09:58:17.317Z,-0.45
2022-12-18T10:00:44.152Z,-0.43
2022-12-18T10:03:15.447Z,-0.46
2022-12-18T10:06:01.414Z,-0.41
2022-12-18T10:09:20.323Z,-0.39
2022-12-18T10:11:46.724Z,-0.29
2022-12-18T10:14:30.869Z,-0.17
2022-12-18T10:17:18.460Z,-0.14
2022-12-18T10:19:52.322Z,-0.04
2022-12-18T10:22:36.777Z,-0.03
2022-12-18T10:25:15.095Z,-0.02
2022-12-18T10:27:41.831Z,0.08
2022-12-18T10:30:21.954Z,0.15
2022-12-18T10:32:48.395Z,0.39
2022-12-18T10:35:22.558Z,0.50
2022-12-18T10:38:00.620Z,0.60
2022-12-18T10:40:27.404Z,0.40
2022-12-18T10:43:15.459Z,0.41
2022-12-18T10:45:43.159Z,0.43
2022-12-18T10:48:21.943Z,0.41
2022-12-18T10:53:38.188Z,0.47
2022-12-18T10:56:07.166Z,0.61
2022-12-18T10:58:36.576Z,0.63
2022-12-18T11:01:07.652Z,0.55
2022-12-18T11:03:41.702Z,0.61
2022-12-18T11:06:22.703Z,0.65
2022-12-18T11:09:21.824Z,0.76
2022-12-18T11:11:54.477Z,0.77
2022-12-18T11:14:33.279Z,0.72
2022-12-18T11:19:55.205Z,0.81
2022-12-18T11:22:33.413Z,0.85
2022-12-18T11:25:30.856Z,0.92
2022-12-18T11:27:51.273Z,0.90
2022-12-18T11:30:20.688Z,0.99
2022-12-18T11:32:51.993Z,1.06
2022-12-18T11:35:23.017Z,1.11
2022-12-18T11:38:00.143Z,1.19
2022-12-18T11:40:40.834Z,1.17
2022-12-18T11:43:39.056Z,1.16
2022-12-18T11:46:17.629Z,1.13
2022-12-18T11:49:29.194Z,1.17
2022-12-18T11:51:55.619Z,1.27
2022-12-18T11:54:22.129Z,1.22
2022-12-18T11:57:10.292Z,1.26
2022-12-18T12:00:15.951Z,1.32
2022-12-18T12:03:02.130Z,1.31
2022-12-18T12:05:51.020Z,1.35
2022-12-18T12:08:28.132Z,1.41
2022-12-18T12:11:11.264Z,1.44
2022-12-18T12:14:14.668Z,1.44
2022-12-18T12:16:47.121Z,1.43
2022-12-18T12:19:25.471Z,1.38
2022-12-18T12:22:16.243Z,1.46
2022-12-18T12:25:20.480Z,1.56
2022-12-18T12:27:54.434Z,1.59
2022-12-18T12:30:26.650Z,1.57
2022-12-18T12:33:05.787Z,1.54
2022-12-18T12:35:58.268Z,1.54
2022-12-18T12:38:35.031Z,1.56
2022-12-18T12:41:06.293Z,1.60
2022-12-18T12:46:41.605Z,1.71
2022-12-18T12:49:16.523Z,1.75
2022-12-18T12:51:48.687Z,1.72
2022-12-18T12:54:22.334Z,1.71
2022-12-18T12:57:20.999Z,1.65
2022-12-18T13:00:06.175Z,1.64
2022-12-18T13:02:51.968Z,1.68
2022-12-18T13:05:26.961Z,1.64
2022-12-18T13:08:10.340Z,1.67
2022-12-18T13:10:38.958Z,1.75
2022-12-18T13:13:09.182Z,1.78
2022-12-18T13:13:43.289Z,1.66
2022-12-18T13:15:46.778Z,1.76
2022-12-18T13:18:19.679Z,1.73
2022-12-18T13:20:53.155Z,1.71
2022-12-18T13:23:24.689Z,1.74
2022-12-18T13:25:55.881Z,1.71
2022-12-18T13:28:34.549Z,1.73
2022-12-18T13:31:02.559Z,1.78
2022-12-18T13:34:01.967Z,1.77
2022-12-18T13:36:34.527Z,1.80
2022-12-18T13:39:34.101Z,1.78
2022-12-18T13:42:07.227Z,1.74
2022-12-18T13:44:41.613Z,1.75
2022-12-18T13:47:29.373Z,1.81
2022-12-18T13:49:56.075Z,1.80
2022-12-18T13:52:26.330Z,1.86
2022-12-18T13:54:56.138Z,1.89
2022-12-18T13:57:41.672Z,1.89
2022-12-18T14:00:23.431Z,1.89
2022-12-18T14:02:51.343Z,1.90
2022-12-18T14:05:35.189Z,1.85
2022-12-18T14:08:06.905Z,1.87
2022-12-18T14:10:47.921Z,1.84
2022-12-18T14:13:41.292Z,1.85
2022-12-18T14:16:09.046Z,1.89
2022-12-18T14:19:04.116Z,1.84
2022-12-18T14:21:47.360Z,1.74
2022-12-18T14:24:22.516Z,1.76
2022-12-18T14:26:50.778Z,1.75
2022-12-18T14:29:29.165Z,1.82
2022-12-18T14:32:18.681Z,1.85
2022-12-18T14:34:50.904Z,2.01
2022-12-18T14:37:22.657Z,2.05
2022-12-18T14:39:57.932Z,2.07
2022-12-18T14:42:28.870Z,1.94
2022-12-18T14:45:37.434Z,1.81
2022-12-18T14:48:09.829Z,1.83
2022-12-18T14:50:37.996Z,1.86
2022-12-18T14:53:09.022Z,1.85
2022-12-18T14:55:35.635Z,1.78
2022-12-18T14:58:02.791Z,1.78
2022-12-18T15:00:29.280Z,1.80
2022-12-18T15:02:57.921Z,1.77
2022-12-18T15:05:30.565Z,1.79
2022-12-18T15:08:00.104Z,1.68
2022-12-18T15:10:32.565Z,1.72
2022-12-18T15:13:00.809Z,1.71
2022-12-18T15:15:40.229Z,1.77
2022-12-18T15:18:09.641Z,1.74
2022-12-18T15:20:45.043Z,1.69
2022-12-18T15:23:21.730Z,1.68
2022-12-18T15:25:55.226Z,1.66
2022-12-18T15:28:39.063Z,1.65
2022-12-18T15:31:09.866Z,1.69
2022-12-18T15:33:39.983Z,1.66
2022-12-18T15:36:12.475Z,1.61
2022-12-18T15:38:38.960Z,1.60
2022-12-18T15:41:24.863Z,1.54
2022-12-18T15:43:53.220Z,1.56
2022-12-18T15:46:22.813Z,1.56
2022-12-18T15:48:53.555Z,1.57
2022-12-18T15:51:23.094Z,1.60
2022-12-18T15:53:52.648Z,1.66
2022-12-18T15:56:37.848Z,1.66
2022-12-18T15:59:13.500Z,1.61
2022-12-18T16:01:42.827Z,1.59
2022-12-18T16:04:13.099Z,1.57
2022-12-18T16:06:58.069Z,1.59
2022-12-18T16:09:26.386Z,1.67
2022-12-18T16:11:53.365Z,1.68
2022-12-18T16:14:28.992Z,1.68
2022-12-18T16:16:58.064Z,1.60
2022-12-18T16:19:25.330Z,1.61
2022-12-18T16:21:54.016Z,1.61
2022-12-18T16:24:26.091Z,1.58
2022-12-18T16:26:54.113Z,1.58
2022-12-18T16:29:28.018Z,1.53
2022-12-18T16:31:59.078Z,1.58
2022-12-18T16:34:32.874Z,1.63
2022-12-18T16:37:05.884Z,1.59
2022-12-18T16:39:35.018Z,1.60
2022-12-18T16:42:09.654Z,1.58
2022-12-18T16:44:36.450Z,1.57
2022-12-18T16:47:04.303Z,1.60
2022-12-18T16:49:31.594Z,1.64
2022-12-18T16:51:58.144Z,1.57
2022-12-18T16:54:25.133Z,1.56
2022-12-18T16:56:52.313Z,1.61
2022-12-18T16:59:19.859Z,1.65
2022-12-18T17:01:46.871Z,1.64
2022-12-18T17:04:13.564Z,1.62
2022-12-18T17:06:43.084Z,1.59
2022-12-18T17:09:14.964Z,1.60
2022-12-18T17:11:41.880Z,1.58
2022-12-18T17:14:10.761Z,1.51
2022-12-18T17:16:37.252Z,1.55
2022-12-18T17:19:05.144Z,1.55
2022-12-18T17:21:31.788Z,1.60
2022-12-18T17:24:01.320Z,1.60
2022-12-18T17:26:28.155Z,1.65
2022-12-18T17:28:57.699Z,1.65
2022-12-18T17:31:26.202Z,1.53
2022-12-18T17:33:53.570Z,1.48
2022-12-18T17:36:21.320Z,1.55
2022-12-18T17:38:57.141Z,1.59
2022-12-18T17:41:24.882Z,1.58
2022-12-18T17:43:56.351Z,1.59
2022-12-18T17:46:23.397Z,1.54
2022-12-18T17:48:50.086Z,1.46
2022-12-18T17:51:17.935Z,1.45
2022-12-18T17:53:44.827Z,1.45
2022-12-18T17:56:17.166Z,1.49
2022-12-18T17:58:44.187Z,1.53
2022-12-18T18:01:13.827Z,1.54
2022-12-18T18:03:42.876Z,1.50
2022-12-18T18:06:09.913Z,1.45
2022-12-18T18:08:37.549Z,1.46
2022-12-18T18:11:28.226Z,1.49
2022-12-18T18:14:00.801Z,1.54
2022-12-18T18:16:35.097Z,1.53
2022-12-18T18:19:07.357Z,1.52
2022-12-18T18:21:35.087Z,1.53
2022-12-18T18:24:03.116Z,1.51
2022-12-18T18:26:31.866Z,1.54
2022-12-18T18:29:00.063Z,1.56
2022-12-18T18:31:30.809Z,1.54
2022-12-18T18:33:57.941Z,1.50
2022-12-18T18:36:24.610Z,1.50
2022-12-18T18:38:52.000Z,1.57
2022-12-18T18:41:18.928Z,1.60
2022-12-18T18:43:45.454Z,1.62
2022-12-18T18:46:14.066Z,1.63
2022-12-18T18:48:42.999Z,1.62
2022-12-18T18:51:21.174Z,1.68
2022-12-18T18:53:49.955Z,1.63
2022-12-18T18:59:05.234Z,1.64
2022-12-18T19:01:31.938Z,1.66
2022-12-18T19:03:58.682Z,1.64
2022-12-18T19:06:27.735Z,1.62
2022-12-18T19:08:55.643Z,1.67
2022-12-18T19:11:42.401Z,1.64
2022-12-18T19:14:11.721Z,1.65
2022-12-18T19:16:38.911Z,1.67
2022-12-18T19:19:05.715Z,1.71
2022-12-18T19:21:34.603Z,1.74
2022-12-18T19:24:02.454Z,1.76
2022-12-18T19:26:29.237Z,1.76
2022-12-18T19:29:04.521Z,1.75
2022-12-18T19:31:35.517Z,1.73
2022-12-18T19:34:03.785Z,1.73
2022-12-18T19:36:31.233Z,1.70
2022-12-18T19:38:59.899Z,1.68
2022-12-18T19:41:29.048Z,1.70
2022-12-18T19:43:55.824Z,1.70
2022-12-18T19:46:23.306Z,1.68
2022-12-18T19:48:50.555Z,1.76
2022-12-18T19:51:18.343Z,1.78
2022-12-18T19:53:45.401Z,1.76
2022-12-18T19:56:15.057Z,1.81
2022-12-18T19:58:42.255Z,1.81
2022-12-18T20:01:10.277Z,1.75
2022-12-18T20:03:38.943Z,1.77
2022-12-18T20:06:12.794Z,1.77
2022-12-18T20:08:40.040Z,1.75
2022-12-18T20:11:07.266Z,1.75
2022-12-18T20:13:34.552Z,1.76
2022-12-18T20:16:01.232Z,1.77
2022-12-18T20:18:27.914Z,1.75
2022-12-18T20:20:55.196Z,1.68
2022-12-18T20:23:24.504Z,1.65
2022-12-18T20:25:54.600Z,1.66
2022-12-18T20:28:22.542Z,1.66
2022-12-18T20:30:49.125Z,1.65
2022-12-18T20:33:16.221Z,1.52
2022-12-18T20:35:43.376Z,1.54
2022-12-18T20:38:10.427Z,1.51
2022-12-18T20:40:41.412Z,1.44
2022-12-18T20:43:11.301Z,1.49
2022-12-18T20:45:41.335Z,1.52
2022-12-18T20:48:09.556Z,1.53
2022-12-18T20:50:36.353Z,1.47
2022-12-18T20:53:02.860Z,1.50
2022-12-18T20:55:29.375Z,1.53
2022-12-18T20:57:55.959Z,1.47
2022-12-18T21:00:22.693Z,1.49
2022-12-18T21:02:49.303Z,1.45
2022-12-18T21:05:15.900Z,1.39
2022-12-18T21:07:42.322Z,1.41
2022-12-18T21:10:09.300Z,1.48
2022-12-18T21:12:42.833Z,1.53
2022-12-18T21:15:28.589Z,1.50
2022-12-18T21:17:55.458Z,1.51
2022-12-18T21:20:21.893Z,1.53
2022-12-18T21:22:49.397Z,1.52
2022-12-18T21:25:15.963Z,1.54
2022-12-18T21:27:42.389Z,1.50
2022-12-18T21:30:09.417Z,1.50
2022-12-18T21:32:35.863Z,1.52
2022-12-18T21:35:02.376Z,1.52
2022-12-18T21:37:28.837Z,1.59
2022-12-18T21:39:55.332Z,1.60
2022-12-18T21:42:48.056Z,1.63
2022-12-18T21:45:14.612Z,1.63
2022-12-18T21:47:41.058Z,1.61
2022-12-18T21:50:07.770Z,1.62
2022-12-18T21:52:34.214Z,1.64
2022-12-18T21:55:08.343Z,1.65
2022-12-18T21:57:35.571Z,1.70
2022-12-18T22:00:02.951Z,1.69
2022-12-18T22:02:29.698Z,1.62
2022-12-18T22:04:56.354Z,1.63
2022-12-18T22:07:22.996Z,1.63
2022-12-18T22:09:50.632Z,1.60
2022-12-18T22:12:35.167Z,1.61
2022-12-18T22:15:04.387Z,1.60
2022-12-18T22:17:30.957Z,1.66
2022-12-18T22:19:57.606Z,1.68
2022-12-18T22:22:24.271Z,1.71
2022-12-18T22:24:50.728Z,1.75
2022-12-18T22:27:17.149Z,1.79
2022-12-18T22:30:02.290Z,1.76
2022-12-18T22:32:30.769Z,1.80
2022-12-18T22:35:04.870Z,1.80
2022-12-18T22:37:32.804Z,1.79
2022-12-18T22:39:59.187Z,1.82
2022-12-18T22:42:29.437Z,1.81
2022-12-18T22:44:55.898Z,1.81
2022-12-18T22:47:25.395Z,1.86
2022-12-18T22:49:55.775Z,1.86
2022-12-18T22:52:22.209Z,1.88
2022-12-18T22:54:51.194Z,1.90
2022-12-18T22:57:20.315Z,1.88
2022-12-18T22:59:46.736Z,1.79
2022-12-18T23:02:13.366Z,1.78
2022-12-18T23:04:39.934Z,1.79
2022-12-18T23:07:06.505Z,1.84
2022-12-18T23:09:33.313Z,1.82
2022-12-18T23:12:00.677Z,1.85
2022-12-18T23:14:28.509Z,1.90
2022-12-18T23:16:55.152Z,1.83
2022-12-18T23:19:23.467Z,1.86
2022-12-18T23:21:50.650Z,1.88
2022-12-18T23:24:17.092Z,1.86
2022-12-18T23:26:43.643Z,1.78
2022-12-18T23:29:10.178Z,1.73
2022-12-18T23:31:38.870Z,1.72
2022-12-18T23:34:07.985Z,1.72
2022-12-18T23:36:45.827Z,1.70
2022-12-18T23:39:19.243Z,1.74
2022-12-18T23:41:57.717Z,1.77
2022-12-18T23:44:24.300Z,1.78
2022-12-18T23:46:50.890Z,1.82
2022-12-18T23:49:17.417Z,1.84
2022-12-18T23:51:43.863Z,1.86
2022-12-18T23:54:10.547Z,1.79
2022-12-18T23:56:36.989Z,1.74
2022-12-18T23:59:03.535Z,1.78
